Terminal Aerodrome Forecast
Issued by NWS

Home | Current Version | Previous Version | Text Only | Print | Product List | Glossary On
Versions: 1 2 3 4 5 6 7 8 9
054
FTUS45 KVEF 252320
TAFDAG
TAF
KDAG 252320Z 2600/2624 27015G20KT P6SM SCT250
     FM261000 26013KT P6SM SCT250
     FM262100 27018G20KT P6SM SKC=

USA.gov is the U.S. government's official web portal to all federal, state and local government web resources and services.